sensor_id;sensor_type;location;lat;lon;timestamp;P1;durP1;ratioP1;P2;durP2;ratioP2
52322;SDS011;38263;52.920;6.238;2022-08-23T00:01:38;7.35;;;3.60;;
52322;SDS011;38263;52.920;6.238;2022-08-23T00:04:11;11.95;;;3.72;;
52322;SDS011;38263;52.920;6.238;2022-08-23T00:06:39;4.82;;;3.55;;
52322;SDS011;38263;52.920;6.238;2022-08-23T00:09:06;3.63;;;2.95;;
52322;SDS011;38263;52.920;6.238;2022-08-23T00:11:35;5.88;;;3.40;;
52322;SDS011;38263;52.920;6.238;2022-08-23T00:14:19;3.15;;;2.85;;
52322;SDS011;38263;52.920;6.238;2022-08-23T00:16:47;6.65;;;3.40;;
52322;SDS011;38263;52.920;6.238;2022-08-23T00:19:14;4.97;;;3.70;;
52322;SDS011;38263;52.920;6.238;2022-08-23T00:21:42;7.95;;;4.18;;
52322;SDS011;38263;52.920;6.238;2022-08-23T00:24:08;7.93;;;4.10;;
52322;SDS011;38263;52.920;6.238;2022-08-23T00:29:24;6.75;;;4.63;;
52322;SDS011;38263;52.920;6.238;2022-08-23T00:32:14;6.75;;;4.20;;
52322;SDS011;38263;52.920;6.238;2022-08-23T00:34:45;6.35;;;3.20;;
52322;SDS011;38263;52.920;6.238;2022-08-23T00:37:11;5.90;;;2.60;;
52322;SDS011;38263;52.920;6.238;2022-08-23T00:39:37;3.13;;;2.70;;
52322;SDS011;38263;52.920;6.238;2022-08-23T00:42:05;7.70;;;3.58;;
52322;SDS011;38263;52.920;6.238;2022-08-23T00:44:55;5.50;;;4.18;;
52322;SDS011;38263;52.920;6.238;2022-08-23T00:47:41;7.30;;;3.78;;
52322;SDS011;38263;52.920;6.238;2022-08-23T00:52:37;8.10;;;4.50;;
52322;SDS011;38263;52.920;6.238;2022-08-23T00:55:08;5.95;;;3.88;;
52322;SDS011;38263;52.920;6.238;2022-08-23T00:57:34;12.63;;;5.40;;
52322;SDS011;38263;52.920;6.238;2022-08-23T01:00:02;4.88;;;3.53;;
52322;SDS011;38263;52.920;6.238;2022-08-23T01:02:30;5.10;;;3.13;;
52322;SDS011;38263;52.920;6.238;2022-08-23T01:04:57;5.68;;;3.55;;
52322;SDS011;38263;52.920;6.238;2022-08-23T01:07:27;4.35;;;2.60;;
52322;SDS011;38263;52.920;6.238;2022-08-23T01:10:03;6.25;;;3.75;;
52322;SDS011;38263;52.920;6.238;2022-08-23T01:12:35;4.00;;;3.25;;
52322;SDS011;38263;52.920;6.238;2022-08-23T01:15:10;3.55;;;2.55;;
52322;SDS011;38263;52.920;6.238;2022-08-23T01:17:52;6.57;;;3.07;;
52322;SDS011;38263;52.920;6.238;2022-08-23T01:20:26;5.07;;;3.75;;
52322;SDS011;38263;52.920;6.238;2022-08-23T01:23:05;6.30;;;4.18;;
52322;SDS011;38263;52.920;6.238;2022-08-23T01:25:40;7.38;;;4.38;;
52322;SDS011;38263;52.920;6.238;2022-08-23T01:28:06;5.75;;;3.83;;
52322;SDS011;38263;52.920;6.238;2022-08-23T01:30:32;5.25;;;4.15;;
52322;SDS011;38263;52.920;6.238;2022-08-23T01:32:59;3.67;;;3.13;;
52322;SDS011;38263;52.920;6.238;2022-08-23T01:35:37;4.35;;;2.95;;
52322;SDS011;38263;52.920;6.238;2022-08-23T01:38:07;5.88;;;4.20;;
52322;SDS011;38263;52.920;6.238;2022-08-23T01:40:34;5.72;;;4.45;;
52322;SDS011;38263;52.920;6.238;2022-08-23T01:42:59;9.70;;;4.63;;
52322;SDS011;38263;52.920;6.238;2022-08-23T01:45:26;4.53;;;4.05;;
52322;SDS011;38263;52.920;6.238;2022-08-23T01:47:52;4.32;;;3.33;;
52322;SDS011;38263;52.920;6.238;2022-08-23T01:50:18;5.68;;;3.65;;
52322;SDS011;38263;52.920;6.238;2022-08-23T01:52:44;5.28;;;3.03;;
52322;SDS011;38263;52.920;6.238;2022-08-23T01:55:10;3.83;;;2.95;;
52322;SDS011;38263;52.920;6.238;2022-08-23T01:57:35;3.97;;;2.88;;
52322;SDS011;38263;52.920;6.238;2022-08-23T02:00:02;4.13;;;2.85;;
52322;SDS011;38263;52.920;6.238;2022-08-23T02:02:29;4.85;;;2.40;;
52322;SDS011;38263;52.920;6.238;2022-08-23T02:04:55;8.45;;;3.83;;
52322;SDS011;38263;52.920;6.238;2022-08-23T02:07:24;4.55;;;4.00;;
52322;SDS011;38263;52.920;6.238;2022-08-23T02:09:51;3.45;;;3.08;;
52322;SDS011;38263;52.920;6.238;2022-08-23T02:12:16;1.90;;;1.70;;
52322;SDS011;38263;52.920;6.238;2022-08-23T02:14:42;3.35;;;2.38;;
52322;SDS011;38263;52.920;6.238;2022-08-23T02:17:08;3.45;;;2.60;;
52322;SDS011;38263;52.920;6.238;2022-08-23T02:19:35;5.78;;;2.75;;
52322;SDS011;38263;52.920;6.238;2022-08-23T02:22:01;5.00;;;2.78;;
52322;SDS011;38263;52.920;6.238;2022-08-23T02:24:28;7.15;;;3.58;;
52322;SDS011;38263;52.920;6.238;2022-08-23T02:26:56;8.35;;;4.95;;
52322;SDS011;38263;52.920;6.238;2022-08-23T02:29:24;9.27;;;4.28;;
52322;SDS011;38263;52.920;6.238;2022-08-23T02:31:53;13.70;;;5.50;;
52322;SDS011;38263;52.920;6.238;2022-08-23T02:34:19;7.70;;;4.30;;
52322;SDS011;38263;52.920;6.238;2022-08-23T02:36:45;6.50;;;5.28;;
52322;SDS011;38263;52.920;6.238;2022-08-23T02:39:14;5.60;;;4.30;;
52322;SDS011;38263;52.920;6.238;2022-08-23T02:41:41;4.55;;;3.60;;
52322;SDS011;38263;52.920;6.238;2022-08-23T02:44:07;8.35;;;4.75;;
52322;SDS011;38263;52.920;6.238;2022-08-23T02:46:33;4.20;;;3.03;;
52322;SDS011;38263;52.920;6.238;2022-08-23T02:48:58;3.95;;;3.28;;
52322;SDS011;38263;52.920;6.238;2022-08-23T02:51:24;5.88;;;3.25;;
52322;SDS011;38263;52.920;6.238;2022-08-23T02:53:50;12.32;;;4.32;;
52322;SDS011;38263;52.920;6.238;2022-08-23T02:56:16;4.10;;;3.22;;
52322;SDS011;38263;52.920;6.238;2022-08-23T02:58:42;3.30;;;2.75;;
52322;SDS011;38263;52.920;6.238;2022-08-23T03:01:16;3.47;;;3.03;;
52322;SDS011;38263;52.920;6.238;2022-08-23T03:03:53;3.60;;;3.28;;
52322;SDS011;38263;52.920;6.238;2022-08-23T03:06:19;58.25;;;5.43;;
52322;SDS011;38263;52.920;6.238;2022-08-23T03:08:45;6.95;;;3.78;;
52322;SDS011;38263;52.920;6.238;2022-08-23T03:11:15;55.10;;;5.80;;
52322;SDS011;38263;52.920;6.238;2022-08-23T03:13:44;12.93;;;4.10;;
52322;SDS011;38263;52.920;6.238;2022-08-23T03:16:10;2.97;;;2.60;;
52322;SDS011;38263;52.920;6.238;2022-08-23T03:18:37;2.90;;;2.58;;
52322;SDS011;38263;52.920;6.238;2022-08-23T03:21:03;4.13;;;2.50;;
52322;SDS011;38263;52.920;6.238;2022-08-23T03:23:30;3.00;;;2.70;;
52322;SDS011;38263;52.920;6.238;2022-08-23T03:25:56;4.90;;;3.42;;
52322;SDS011;38263;52.920;6.238;2022-08-23T03:28:23;22.52;;;4.10;;
52322;SDS011;38263;52.920;6.238;2022-08-23T03:30:49;45.55;;;4.75;;
52322;SDS011;38263;52.920;6.238;2022-08-23T03:33:15;21.45;;;3.65;;
52322;SDS011;38263;52.920;6.238;2022-08-23T03:35:42;7.15;;;3.20;;
52322;SDS011;38263;52.920;6.238;2022-08-23T03:38:07;3.90;;;2.72;;
52322;SDS011;38263;52.920;6.238;2022-08-23T03:40:33;3.03;;;2.60;;
52322;SDS011;38263;52.920;6.238;2022-08-23T03:42:59;3.72;;;2.55;;
52322;SDS011;38263;52.920;6.238;2022-08-23T03:45:25;2.92;;;2.10;;
52322;SDS011;38263;52.920;6.238;2022-08-23T03:47:52;27.17;;;3.75;;
52322;SDS011;38263;52.920;6.238;2022-08-23T03:50:17;30.80;;;3.30;;
52322;SDS011;38263;52.920;6.238;2022-08-23T03:52:43;19.77;;;3.13;;
52322;SDS011;38263;52.920;6.238;2022-08-23T03:55:08;3.42;;;3.13;;
52322;SDS011;38263;52.920;6.238;2022-08-23T03:57:34;3.92;;;3.53;;
52322;SDS011;38263;52.920;6.238;2022-08-23T04:00:00;4.88;;;4.00;;
52322;SDS011;38263;52.920;6.238;2022-08-23T04:02:25;46.13;;;5.32;;
52322;SDS011;38263;52.920;6.238;2022-08-23T04:04:51;6.78;;;3.33;;
52322;SDS011;38263;52.920;6.238;2022-08-23T04:07:18;13.45;;;3.00;;
52322;SDS011;38263;52.920;6.238;2022-08-23T04:09:45;6.03;;;4.15;;
52322;SDS011;38263;52.920;6.238;2022-08-23T04:12:11;4.18;;;3.63;;
52322;SDS011;38263;52.920;6.238;2022-08-23T04:14:37;5.25;;;4.05;;
52322;SDS011;38263;52.920;6.238;2022-08-23T04:17:03;4.32;;;3.10;;
52322;SDS011;38263;52.920;6.238;2022-08-23T04:19:28;4.55;;;4.15;;
52322;SDS011;38263;52.920;6.238;2022-08-23T04:21:55;5.00;;;3.50;;
52322;SDS011;38263;52.920;6.238;2022-08-23T04:24:21;4.85;;;3.20;;
52322;SDS011;38263;52.920;6.238;2022-08-23T04:26:47;5.15;;;3.65;;
52322;SDS011;38263;52.920;6.238;2022-08-23T04:29:13;4.97;;;2.80;;
52322;SDS011;38263;52.920;6.238;2022-08-23T04:31:44;2.70;;;2.50;;
52322;SDS011;38263;52.920;6.238;2022-08-23T04:34:10;3.65;;;3.35;;
52322;SDS011;38263;52.920;6.238;2022-08-23T04:36:37;4.80;;;3.83;;
52322;SDS011;38263;52.920;6.238;2022-08-23T04:39:05;4.10;;;2.40;;
52322;SDS011;38263;52.920;6.238;2022-08-23T04:41:31;2.53;;;1.92;;
52322;SDS011;38263;52.920;6.238;2022-08-23T04:44:15;3.13;;;2.83;;
52322;SDS011;38263;52.920;6.238;2022-08-23T04:46:41;5.85;;;4.32;;
52322;SDS011;38263;52.920;6.238;2022-08-23T04:49:12;3.63;;;3.30;;
52322;SDS011;38263;52.920;6.238;2022-08-23T04:51:38;6.22;;;3.85;;
52322;SDS011;38263;52.920;6.238;2022-08-23T04:54:04;8.93;;;5.60;;
52322;SDS011;38263;52.920;6.238;2022-08-23T04:56:31;8.70;;;5.13;;
52322;SDS011;38263;52.920;6.238;2022-08-23T04:58:58;6.63;;;4.95;;
52322;SDS011;38263;52.920;6.238;2022-08-23T05:01:23;6.60;;;5.13;;
52322;SDS011;38263;52.920;6.238;2022-08-23T05:03:49;9.77;;;5.95;;
52322;SDS011;38263;52.920;6.238;2022-08-23T05:06:16;6.70;;;5.65;;
52322;SDS011;38263;52.920;6.238;2022-08-23T05:08:42;7.13;;;4.45;;
52322;SDS011;38263;52.920;6.238;2022-08-23T05:11:08;5.85;;;4.80;;
52322;SDS011;38263;52.920;6.238;2022-08-23T05:13:34;9.25;;;6.57;;
52322;SDS011;38263;52.920;6.238;2022-08-23T05:16:00;10.65;;;6.38;;
52322;SDS011;38263;52.920;6.238;2022-08-23T05:18:26;8.10;;;5.60;;
52322;SDS011;38263;52.920;6.238;2022-08-23T05:20:52;11.15;;;5.50;;
52322;SDS011;38263;52.920;6.238;2022-08-23T05:23:18;11.02;;;7.35;;
52322;SDS011;38263;52.920;6.238;2022-08-23T05:25:45;10.50;;;7.97;;
52322;SDS011;38263;52.920;6.238;2022-08-23T05:28:14;11.60;;;8.57;;
52322;SDS011;38263;52.920;6.238;2022-08-23T05:30:41;12.45;;;9.10;;
52322;SDS011;38263;52.920;6.238;2022-08-23T05:33:07;12.93;;;9.38;;
52322;SDS011;38263;52.920;6.238;2022-08-23T05:35:32;11.68;;;8.05;;
52322;SDS011;38263;52.920;6.238;2022-08-23T05:37:58;15.35;;;9.68;;
52322;SDS011;38263;52.920;6.238;2022-08-23T05:40:24;15.10;;;10.10;;
52322;SDS011;38263;52.920;6.238;2022-08-23T05:42:51;15.30;;;11.60;;
52322;SDS011;38263;52.920;6.238;2022-08-23T05:45:18;22.75;;;15.13;;
52322;SDS011;38263;52.920;6.238;2022-08-23T05:47:43;22.80;;;16.48;;
52322;SDS011;38263;52.920;6.238;2022-08-23T05:50:10;18.65;;;14.88;;
52322;SDS011;38263;52.920;6.238;2022-08-23T05:52:36;20.08;;;16.20;;
52322;SDS011;38263;52.920;6.238;2022-08-23T05:55:03;21.15;;;16.38;;
52322;SDS011;38263;52.920;6.238;2022-08-23T05:57:30;20.83;;;16.02;;
52322;SDS011;38263;52.920;6.238;2022-08-23T05:59:58;21.08;;;16.27;;
52322;SDS011;38263;52.920;6.238;2022-08-23T06:02:23;22.88;;;17.00;;
52322;SDS011;38263;52.920;6.238;2022-08-23T06:04:49;19.95;;;16.00;;
52322;SDS011;38263;52.920;6.238;2022-08-23T06:07:14;20.50;;;15.43;;
52322;SDS011;38263;52.920;6.238;2022-08-23T06:09:40;20.02;;;15.02;;
52322;SDS011;38263;52.920;6.238;2022-08-23T06:12:06;19.85;;;14.90;;
52322;SDS011;38263;52.920;6.238;2022-08-23T06:14:32;19.42;;;14.32;;
52322;SDS011;38263;52.920;6.238;2022-08-23T06:16:58;21.20;;;14.20;;
52322;SDS011;38263;52.920;6.238;2022-08-23T06:19:23;19.33;;;14.43;;
52322;SDS011;38263;52.920;6.238;2022-08-23T06:21:49;16.08;;;13.07;;
52322;SDS011;38263;52.920;6.238;2022-08-23T06:24:16;16.75;;;13.52;;
52322;SDS011;38263;52.920;6.238;2022-08-23T06:26:42;16.13;;;13.55;;
52322;SDS011;38263;52.920;6.238;2022-08-23T06:29:10;16.13;;;12.73;;
52322;SDS011;38263;52.920;6.238;2022-08-23T06:31:39;16.20;;;13.27;;
52322;SDS011;38263;52.920;6.238;2022-08-23T06:34:11;17.45;;;13.02;;
52322;SDS011;38263;52.920;6.238;2022-08-23T06:36:38;18.40;;;12.32;;
52322;SDS011;38263;52.920;6.238;2022-08-23T06:39:04;13.52;;;11.48;;
52322;SDS011;38263;52.920;6.238;2022-08-23T06:41:32;17.55;;;11.30;;
52322;SDS011;38263;52.920;6.238;2022-08-23T06:43:57;13.13;;;11.48;;
52322;SDS011;38263;52.920;6.238;2022-08-23T06:46:24;12.75;;;10.57;;
52322;SDS011;38263;52.920;6.238;2022-08-23T06:48:51;12.23;;;10.07;;
52322;SDS011;38263;52.920;6.238;2022-08-23T06:53:47;11.98;;;9.45;;
52322;SDS011;38263;52.920;6.238;2022-08-23T06:56:12;10.95;;;9.73;;
52322;SDS011;38263;52.920;6.238;2022-08-23T06:58:38;11.05;;;8.32;;
52322;SDS011;38263;52.920;6.238;2022-08-23T07:01:47;13.48;;;8.23;;
52322;SDS011;38263;52.920;6.238;2022-08-23T07:03:53;16.63;;;8.95;;
52322;SDS011;38263;52.920;6.238;2022-08-23T07:06:23;13.38;;;8.05;;
52322;SDS011;38263;52.920;6.238;2022-08-23T07:08:49;9.60;;;8.27;;
52322;SDS011;38263;52.920;6.238;2022-08-23T07:11:16;10.45;;;7.82;;
52322;SDS011;38263;52.920;6.238;2022-08-23T07:13:42;12.57;;;7.82;;
52322;SDS011;38263;52.920;6.238;2022-08-23T07:16:08;11.55;;;7.35;;
52322;SDS011;38263;52.920;6.238;2022-08-23T07:18:34;11.82;;;7.00;;
52322;SDS011;38263;52.920;6.238;2022-08-23T07:21:01;8.55;;;6.13;;
52322;SDS011;38263;52.920;6.238;2022-08-23T07:23:28;11.95;;;6.00;;
52322;SDS011;38263;52.920;6.238;2022-08-23T07:26:02;10.45;;;5.88;;
52322;SDS011;38263;52.920;6.238;2022-08-23T07:28:31;10.10;;;6.00;;
52322;SDS011;38263;52.920;6.238;2022-08-23T07:31:13;9.73;;;5.50;;
52322;SDS011;38263;52.920;6.238;2022-08-23T07:33:47;9.60;;;5.82;;
52322;SDS011;38263;52.920;6.238;2022-08-23T07:36:15;9.15;;;5.75;;
52322;SDS011;38263;52.920;6.238;2022-08-23T07:38:42;7.25;;;5.05;;
52322;SDS011;38263;52.920;6.238;2022-08-23T07:41:09;9.88;;;5.13;;
52322;SDS011;38263;52.920;6.238;2022-08-23T07:43:35;9.25;;;5.90;;
52322;SDS011;38263;52.920;6.238;2022-08-23T07:46:01;12.27;;;5.80;;
52322;SDS011;38263;52.920;6.238;2022-08-23T07:48:27;9.95;;;5.93;;
52322;SDS011;38263;52.920;6.238;2022-08-23T07:50:54;10.75;;;7.10;;
52322;SDS011;38263;52.920;6.238;2022-08-23T07:53:21;15.93;;;6.88;;
52322;SDS011;38263;52.920;6.238;2022-08-23T07:55:48;8.20;;;6.75;;
52322;SDS011;38263;52.920;6.238;2022-08-23T07:58:13;12.73;;;6.60;;
52322;SDS011;38263;52.920;6.238;2022-08-23T08:00:39;13.52;;;6.50;;
52322;SDS011;38263;52.920;6.238;2022-08-23T08:03:05;7.75;;;6.20;;
52322;SDS011;38263;52.920;6.238;2022-08-23T08:05:31;11.18;;;5.43;;
52322;SDS011;38263;52.920;6.238;2022-08-23T08:07:57;7.85;;;5.20;;
52322;SDS011;38263;52.920;6.238;2022-08-23T08:10:23;12.32;;;4.90;;
52322;SDS011;38263;52.920;6.238;2022-08-23T08:12:48;13.15;;;6.55;;
52322;SDS011;38263;52.920;6.238;2022-08-23T08:15:14;10.85;;;5.80;;
52322;SDS011;38263;52.920;6.238;2022-08-23T08:17:40;8.98;;;5.38;;
52322;SDS011;38263;52.920;6.238;2022-08-23T08:20:06;7.03;;;4.90;;
52322;SDS011;38263;52.920;6.238;2022-08-23T08:22:32;10.93;;;6.32;;
52322;SDS011;38263;52.920;6.238;2022-08-23T08:24:58;6.47;;;5.05;;
52322;SDS011;38263;52.920;6.238;2022-08-23T08:27:24;7.80;;;5.38;;
52322;SDS011;38263;52.920;6.238;2022-08-23T08:29:49;7.70;;;5.22;;
52322;SDS011;38263;52.920;6.238;2022-08-23T08:32:15;6.93;;;4.97;;
52322;SDS011;38263;52.920;6.238;2022-08-23T08:34:41;6.85;;;5.05;;
52322;SDS011;38263;52.920;6.238;2022-08-23T08:37:06;10.55;;;5.18;;
52322;SDS011;38263;52.920;6.238;2022-08-23T08:39:33;6.35;;;4.72;;
52322;SDS011;38263;52.920;6.238;2022-08-23T08:42:16;10.75;;;4.90;;
52322;SDS011;38263;52.920;6.238;2022-08-23T08:45:25;8.02;;;4.40;;
52322;SDS011;38263;52.920;6.238;2022-08-23T08:48:01;7.90;;;4.53;;
52322;SDS011;38263;52.920;6.238;2022-08-23T08:53:25;7.78;;;4.80;;
52322;SDS011;38263;52.920;6.238;2022-08-23T08:55:57;7.00;;;4.85;;
52322;SDS011;38263;52.920;6.238;2022-08-23T08:58:29;9.63;;;4.22;;
52322;SDS011;38263;52.920;6.238;2022-08-23T09:01:04;8.13;;;3.35;;
52322;SDS011;38263;52.920;6.238;2022-08-23T09:03:31;7.38;;;3.80;;
52322;SDS011;38263;52.920;6.238;2022-08-23T09:06:00;6.50;;;3.70;;
52322;SDS011;38263;52.920;6.238;2022-08-23T09:14:37;6.82;;;3.15;;
52322;SDS011;38263;52.920;6.238;2022-08-23T09:20:00;7.47;;;3.20;;
52322;SDS011;38263;52.920;6.238;2022-08-23T09:22:34;6.20;;;3.08;;
52322;SDS011;38263;52.920;6.238;2022-08-23T09:25:08;7.18;;;3.00;;
52322;SDS011;38263;52.920;6.238;2022-08-23T09:27:36;6.72;;;2.70;;
52322;SDS011;38263;52.920;6.238;2022-08-23T09:30:03;11.57;;;3.88;;
52322;SDS011;38263;52.920;6.238;2022-08-23T09:35:20;6.95;;;3.25;;
52322;SDS011;38263;52.920;6.238;2022-08-23T09:40:33;4.28;;;2.60;;
52322;SDS011;38263;52.920;6.238;2022-08-23T09:48:15;8.70;;;2.70;;
52322;SDS011;38263;52.920;6.238;2022-08-23T09:53:32;5.97;;;2.67;;
52322;SDS011;38263;52.920;6.238;2022-08-23T09:56:08;3.95;;;2.60;;
52322;SDS011;38263;52.920;6.238;2022-08-23T09:58:41;8.93;;;2.30;;
52322;SDS011;38263;52.920;6.238;2022-08-23T10:01:18;4.03;;;2.85;;
52322;SDS011;38263;52.920;6.238;2022-08-23T10:03:47;5.28;;;1.98;;
52322;SDS011;38263;52.920;6.238;2022-08-23T10:06:39;6.72;;;2.45;;
52322;SDS011;38263;52.920;6.238;2022-08-23T10:09:07;5.00;;;2.45;;
52322;SDS011;38263;52.920;6.238;2022-08-23T10:11:36;5.25;;;2.35;;
52322;SDS011;38263;52.920;6.238;2022-08-23T10:14:05;6.25;;;2.22;;
52322;SDS011;38263;52.920;6.238;2022-08-23T10:19:22;6.22;;;3.00;;
52322;SDS011;38263;52.920;6.238;2022-08-23T10:22:00;7.55;;;2.72;;
52322;SDS011;38263;52.920;6.238;2022-08-23T10:30:06;7.20;;;2.87;;
52322;SDS011;38263;52.920;6.238;2022-08-23T10:38:16;4.80;;;2.50;;
52322;SDS011;38263;52.920;6.238;2022-08-23T10:44:21;10.38;;;3.13;;
52322;SDS011;38263;52.920;6.238;2022-08-23T10:49:48;6.07;;;2.50;;
52322;SDS011;38263;52.920;6.238;2022-08-23T10:52:18;6.72;;;1.90;;
52322;SDS011;38263;52.920;6.238;2022-08-23T10:54:57;6.03;;;2.42;;
52322;SDS011;38263;52.920;6.238;2022-08-23T10:57:40;6.80;;;1.95;;
52322;SDS011;38263;52.920;6.238;2022-08-23T11:00:09;4.18;;;1.80;;
52322;SDS011;38263;52.920;6.238;2022-08-23T11:02:48;5.50;;;1.90;;
52322;SDS011;38263;52.920;6.238;2022-08-23T11:05:23;6.50;;;2.40;;
52322;SDS011;38263;52.920;6.238;2022-08-23T11:08:04;4.88;;;1.60;;
52322;SDS011;38263;52.920;6.238;2022-08-23T11:31:35;4.03;;;1.88;;
52322;SDS011;38263;52.920;6.238;2022-08-23T11:34:18;3.63;;;1.92;;
52322;SDS011;38263;52.920;6.238;2022-08-23T11:42:22;8.68;;;1.90;;
52322;SDS011;38263;52.920;6.238;2022-08-23T11:45:20;6.13;;;1.60;;
52322;SDS011;38263;52.920;6.238;2022-08-23T12:01:17;5.78;;;1.67;;
52322;SDS011;38263;52.920;6.238;2022-08-23T12:04:00;5.50;;;1.30;;
52322;SDS011;38263;52.920;6.238;2022-08-23T12:06:43;10.98;;;1.67;;
52322;SDS011;38263;52.920;6.238;2022-08-23T12:17:26;4.68;;;2.05;;
52322;SDS011;38263;52.920;6.238;2022-08-23T12:19:51;4.63;;;1.42;;
52322;SDS011;38263;52.920;6.238;2022-08-23T12:22:23;8.00;;;1.90;;
52322;SDS011;38263;52.920;6.238;2022-08-23T12:25:01;4.85;;;1.10;;
52322;SDS011;38263;52.920;6.238;2022-08-23T12:27:42;4.85;;;1.65;;
52322;SDS011;38263;52.920;6.238;2022-08-23T12:30:23;3.80;;;1.10;;
52322;SDS011;38263;52.920;6.238;2022-08-23T12:35:35;4.90;;;1.90;;
52322;SDS011;38263;52.920;6.238;2022-08-23T12:40:54;4.10;;;1.35;;
52322;SDS011;38263;52.920;6.238;2022-08-23T12:43:28;4.18;;;1.67;;
52322;SDS011;38263;52.920;6.238;2022-08-23T12:45:58;4.72;;;1.60;;
52322;SDS011;38263;52.920;6.238;2022-08-23T12:48:26;5.63;;;1.48;;
52322;SDS011;38263;52.920;6.238;2022-08-23T12:51:01;7.55;;;1.85;;
52322;SDS011;38263;52.920;6.238;2022-08-23T12:53:34;7.07;;;1.77;;
52322;SDS011;38263;52.920;6.238;2022-08-23T12:56:06;6.22;;;1.90;;
52322;SDS011;38263;52.920;6.238;2022-08-23T12:58:38;8.25;;;1.75;;
52322;SDS011;38263;52.920;6.238;2022-08-23T13:01:16;9.35;;;1.75;;
52322;SDS011;38263;52.920;6.238;2022-08-23T13:03:58;5.22;;;1.63;;
52322;SDS011;38263;52.920;6.238;2022-08-23T13:06:33;6.32;;;1.70;;
52322;SDS011;38263;52.920;6.238;2022-08-23T13:09:07;4.43;;;1.70;;
52322;SDS011;38263;52.920;6.238;2022-08-23T13:11:39;6.05;;;2.22;;
52322;SDS011;38263;52.920;6.238;2022-08-23T13:19:52;4.93;;;1.60;;
52322;SDS011;38263;52.920;6.238;2022-08-23T13:22:31;5.03;;;1.75;;
52322;SDS011;38263;52.920;6.238;2022-08-23T13:25:11;5.93;;;2.00;;
52322;SDS011;38263;52.920;6.238;2022-08-23T13:27:51;6.15;;;2.20;;
52322;SDS011;38263;52.920;6.238;2022-08-23T13:40:52;6.47;;;2.05;;
52322;SDS011;38263;52.920;6.238;2022-08-23T13:43:31;9.27;;;2.25;;
52322;SDS011;38263;52.920;6.238;2022-08-23T13:45:59;4.90;;;2.10;;
52322;SDS011;38263;52.920;6.238;2022-08-23T13:48:34;7.45;;;1.65;;
52322;SDS011;38263;52.920;6.238;2022-08-23T13:53:51;5.10;;;1.92;;
52322;SDS011;38263;52.920;6.238;2022-08-23T13:56:17;11.30;;;2.42;;
52322;SDS011;38263;52.920;6.238;2022-08-23T13:58:50;8.48;;;2.38;;
52322;SDS011;38263;52.920;6.238;2022-08-23T14:01:21;5.07;;;1.80;;
52322;SDS011;38263;52.920;6.238;2022-08-23T14:03:47;3.20;;;1.48;;
52322;SDS011;38263;52.920;6.238;2022-08-23T14:06:13;6.03;;;1.52;;
52322;SDS011;38263;52.920;6.238;2022-08-23T14:08:39;6.28;;;2.17;;
52322;SDS011;38263;52.920;6.238;2022-08-23T14:11:04;4.05;;;1.63;;
52322;SDS011;38263;52.920;6.238;2022-08-23T14:13:30;7.07;;;1.90;;
52322;SDS011;38263;52.920;6.238;2022-08-23T14:16:01;3.65;;;1.80;;
52322;SDS011;38263;52.920;6.238;2022-08-23T14:18:30;4.40;;;1.63;;
52322;SDS011;38263;52.920;6.238;2022-08-23T14:20:55;3.03;;;1.58;;
52322;SDS011;38263;52.920;6.238;2022-08-23T14:23:21;4.88;;;1.70;;
52322;SDS011;38263;52.920;6.238;2022-08-23T14:25:47;5.03;;;1.70;;
52322;SDS011;38263;52.920;6.238;2022-08-23T14:28:15;3.45;;;1.42;;
52322;SDS011;38263;52.920;6.238;2022-08-23T14:30:42;10.68;;;1.40;;
52322;SDS011;38263;52.920;6.238;2022-08-23T14:33:08;17.80;;;2.88;;
52322;SDS011;38263;52.920;6.238;2022-08-23T14:35:33;6.10;;;2.03;;
52322;SDS011;38263;52.920;6.238;2022-08-23T14:37:59;5.00;;;1.85;;
52322;SDS011;38263;52.920;6.238;2022-08-23T14:40:24;4.72;;;1.67;;
52322;SDS011;38263;52.920;6.238;2022-08-23T14:42:50;3.50;;;1.63;;
52322;SDS011;38263;52.920;6.238;2022-08-23T14:45:18;8.52;;;1.80;;
52322;SDS011;38263;52.920;6.238;2022-08-23T14:47:44;5.15;;;2.00;;
52322;SDS011;38263;52.920;6.238;2022-08-23T14:50:10;7.40;;;2.15;;
52322;SDS011;38263;52.920;6.238;2022-08-23T14:52:38;6.72;;;2.00;;
52322;SDS011;38263;52.920;6.238;2022-08-23T14:55:06;6.65;;;2.38;;
52322;SDS011;38263;52.920;6.238;2022-08-23T14:57:32;6.38;;;2.40;;
52322;SDS011;38263;52.920;6.238;2022-08-23T14:59:58;8.40;;;1.90;;
52322;SDS011;38263;52.920;6.238;2022-08-23T15:02:24;7.05;;;2.35;;
52322;SDS011;38263;52.920;6.238;2022-08-23T15:04:51;6.30;;;2.00;;
52322;SDS011;38263;52.920;6.238;2022-08-23T15:07:17;7.88;;;2.20;;
52322;SDS011;38263;52.920;6.238;2022-08-23T15:09:43;5.22;;;2.20;;
52322;SDS011;38263;52.920;6.238;2022-08-23T15:12:09;10.82;;;2.22;;
52322;SDS011;38263;52.920;6.238;2022-08-23T15:14:35;6.60;;;1.95;;
52322;SDS011;38263;52.920;6.238;2022-08-23T15:17:00;5.85;;;2.00;;
52322;SDS011;38263;52.920;6.238;2022-08-23T15:19:27;6.68;;;1.73;;
52322;SDS011;38263;52.920;6.238;2022-08-23T15:21:53;5.45;;;1.95;;
52322;SDS011;38263;52.920;6.238;2022-08-23T15:24:19;8.32;;;2.30;;
52322;SDS011;38263;52.920;6.238;2022-08-23T15:26:44;13.05;;;2.78;;
52322;SDS011;38263;52.920;6.238;2022-08-23T15:29:10;11.30;;;1.95;;
52322;SDS011;38263;52.920;6.238;2022-08-23T15:31:35;7.43;;;3.35;;
52322;SDS011;38263;52.920;6.238;2022-08-23T15:34:01;7.40;;;2.53;;
52322;SDS011;38263;52.920;6.238;2022-08-23T15:36:27;6.93;;;2.63;;
52322;SDS011;38263;52.920;6.238;2022-08-23T15:38:52;4.82;;;2.22;;
52322;SDS011;38263;52.920;6.238;2022-08-23T15:41:18;4.82;;;1.90;;
52322;SDS011;38263;52.920;6.238;2022-08-23T15:43:44;5.05;;;2.22;;
52322;SDS011;38263;52.920;6.238;2022-08-23T15:46:12;5.35;;;1.95;;
52322;SDS011;38263;52.920;6.238;2022-08-23T15:48:44;5.60;;;2.05;;
52322;SDS011;38263;52.920;6.238;2022-08-23T15:51:12;6.22;;;2.13;;
52322;SDS011;38263;52.920;6.238;2022-08-23T15:53:40;5.78;;;2.17;;
52322;SDS011;38263;52.920;6.238;2022-08-23T15:56:07;6.10;;;1.80;;
52322;SDS011;38263;52.920;6.238;2022-08-23T15:58:34;4.63;;;1.70;;
52322;SDS011;38263;52.920;6.238;2022-08-23T16:01:01;5.60;;;1.70;;
52322;SDS011;38263;52.920;6.238;2022-08-23T16:03:27;7.00;;;1.98;;
52322;SDS011;38263;52.920;6.238;2022-08-23T16:05:52;8.73;;;2.30;;
52322;SDS011;38263;52.920;6.238;2022-08-23T16:10:47;6.03;;;2.42;;
52322;SDS011;38263;52.920;6.238;2022-08-23T16:13:12;9.02;;;2.47;;
52322;SDS011;38263;52.920;6.238;2022-08-23T16:15:38;11.23;;;2.30;;
52322;SDS011;38263;52.920;6.238;2022-08-23T16:18:04;10.13;;;2.17;;
52322;SDS011;38263;52.920;6.238;2022-08-23T16:20:30;7.78;;;2.50;;
52322;SDS011;38263;52.920;6.238;2022-08-23T16:22:56;14.30;;;2.90;;
52322;SDS011;38263;52.920;6.238;2022-08-23T16:25:21;11.07;;;2.65;;
52322;SDS011;38263;52.920;6.238;2022-08-23T16:27:47;11.00;;;2.65;;
52322;SDS011;38263;52.920;6.238;2022-08-23T16:30:13;7.40;;;2.70;;
52322;SDS011;38263;52.920;6.238;2022-08-23T16:32:39;5.00;;;2.30;;
52322;SDS011;38263;52.920;6.238;2022-08-23T16:35:04;5.22;;;2.15;;
52322;SDS011;38263;52.920;6.238;2022-08-23T16:37:31;8.75;;;3.17;;
52322;SDS011;38263;52.920;6.238;2022-08-23T16:39:56;7.95;;;2.20;;
52322;SDS011;38263;52.920;6.238;2022-08-23T16:42:22;10.30;;;3.08;;
52322;SDS011;38263;52.920;6.238;2022-08-23T16:44:47;12.18;;;3.92;;
52322;SDS011;38263;52.920;6.238;2022-08-23T16:47:13;8.27;;;2.80;;
52322;SDS011;38263;52.920;6.238;2022-08-23T16:49:40;6.13;;;2.65;;
52322;SDS011;38263;52.920;6.238;2022-08-23T16:52:07;8.02;;;2.35;;
52322;SDS011;38263;52.920;6.238;2022-08-23T16:54:35;7.85;;;2.00;;
52322;SDS011;38263;52.920;6.238;2022-08-23T16:57:01;9.40;;;3.55;;
52322;SDS011;38263;52.920;6.238;2022-08-23T16:59:27;10.43;;;2.80;;
52322;SDS011;38263;52.920;6.238;2022-08-23T17:01:58;3.95;;;2.17;;